sensor_id;sensor_type;location;lat;lon;timestamp;P1;durP1;ratioP1;P2;durP2;ratioP2
69779;SDS011;57052;55.602;38.096;2023-04-25T00:01:23;12.85;;;6.65;;
69779;SDS011;57052;55.602;38.096;2023-04-25T00:03:49;10.32;;;6.22;;
69779;SDS011;57052;55.602;38.096;2023-04-25T00:06:15;12.70;;;6.35;;
69779;SDS011;57052;55.602;38.096;2023-04-25T00:08:42;12.70;;;6.38;;
69779;SDS011;57052;55.602;38.096;2023-04-25T00:11:08;13.63;;;6.63;;
69779;SDS011;57052;55.602;38.096;2023-04-25T00:13:34;16.13;;;7.05;;
69779;SDS011;57052;55.602;38.096;2023-04-25T00:16:00;15.90;;;6.45;;
69779;SDS011;57052;55.602;38.096;2023-04-25T00:18:27;13.45;;;6.25;;
69779;SDS011;57052;55.602;38.096;2023-04-25T00:20:58;11.90;;;6.20;;
69779;SDS011;57052;55.602;38.096;2023-04-25T00:23:23;11.73;;;6.28;;
69779;SDS011;57052;55.602;38.096;2023-04-25T00:25:50;12.50;;;6.00;;
69779;SDS011;57052;55.602;38.096;2023-04-25T00:28:16;11.38;;;6.60;;
69779;SDS011;57052;55.602;38.096;2023-04-25T00:30:42;13.32;;;6.32;;
69779;SDS011;57052;55.602;38.096;2023-04-25T00:33:09;10.77;;;5.95;;
69779;SDS011;57052;55.602;38.096;2023-04-25T00:35:35;15.10;;;6.68;;
69779;SDS011;57052;55.602;38.096;2023-04-25T00:38:01;13.07;;;6.32;;
69779;SDS011;57052;55.602;38.096;2023-04-25T00:40:27;11.82;;;6.40;;
69779;SDS011;57052;55.602;38.096;2023-04-25T00:42:53;15.15;;;6.50;;
69779;SDS011;57052;55.602;38.096;2023-04-25T00:45:20;11.77;;;6.28;;
69779;SDS011;57052;55.602;38.096;2023-04-25T00:47:46;17.50;;;5.78;;
69779;SDS011;57052;55.602;38.096;2023-04-25T00:50:12;13.85;;;6.18;;
69779;SDS011;57052;55.602;38.096;2023-04-25T00:52:39;17.70;;;6.57;;
69779;SDS011;57052;55.602;38.096;2023-04-25T00:55:07;13.13;;;6.10;;
69779;SDS011;57052;55.602;38.096;2023-04-25T00:57:33;14.68;;;6.25;;
69779;SDS011;57052;55.602;38.096;2023-04-25T00:59:59;14.07;;;5.72;;
69779;SDS011;57052;55.602;38.096;2023-04-25T01:02:26;19.30;;;6.43;;
69779;SDS011;57052;55.602;38.096;2023-04-25T01:04:52;15.07;;;6.03;;
69779;SDS011;57052;55.602;38.096;2023-04-25T01:07:18;14.40;;;5.75;;
69779;SDS011;57052;55.602;38.096;2023-04-25T01:09:43;9.85;;;5.47;;
69779;SDS011;57052;55.602;38.096;2023-04-25T01:12:09;15.05;;;6.43;;
69779;SDS011;57052;55.602;38.096;2023-04-25T01:14:35;12.88;;;6.07;;
69779;SDS011;57052;55.602;38.096;2023-04-25T01:17:01;9.63;;;5.63;;
69779;SDS011;57052;55.602;38.096;2023-04-25T01:19:26;15.85;;;6.72;;
69779;SDS011;57052;55.602;38.096;2023-04-25T01:21:52;11.07;;;6.35;;
69779;SDS011;57052;55.602;38.096;2023-04-25T01:24:18;10.30;;;5.80;;
69779;SDS011;57052;55.602;38.096;2023-04-25T01:26:44;12.55;;;5.90;;
69779;SDS011;57052;55.602;38.096;2023-04-25T01:29:15;14.10;;;6.10;;
69779;SDS011;57052;55.602;38.096;2023-04-25T01:31:42;13.98;;;6.28;;
69779;SDS011;57052;55.602;38.096;2023-04-25T01:34:09;16.25;;;6.65;;
69779;SDS011;57052;55.602;38.096;2023-04-25T01:36:35;11.73;;;5.82;;
69779;SDS011;57052;55.602;38.096;2023-04-25T01:39:01;16.83;;;6.43;;
69779;SDS011;57052;55.602;38.096;2023-04-25T01:41:27;13.98;;;6.93;;
69779;SDS011;57052;55.602;38.096;2023-04-25T01:43:53;13.52;;;6.60;;
69779;SDS011;57052;55.602;38.096;2023-04-25T01:46:19;16.13;;;6.25;;
69779;SDS011;57052;55.602;38.096;2023-04-25T01:48:45;14.20;;;6.70;;
69779;SDS011;57052;55.602;38.096;2023-04-25T01:51:11;16.10;;;7.32;;
69779;SDS011;57052;55.602;38.096;2023-04-25T01:53:37;17.70;;;6.88;;
69779;SDS011;57052;55.602;38.096;2023-04-25T01:56:04;14.52;;;7.10;;
69779;SDS011;57052;55.602;38.096;2023-04-25T01:58:30;15.20;;;7.10;;
69779;SDS011;57052;55.602;38.096;2023-04-25T02:00:56;14.65;;;7.20;;
69779;SDS011;57052;55.602;38.096;2023-04-25T02:03:22;13.05;;;6.53;;
69779;SDS011;57052;55.602;38.096;2023-04-25T02:05:47;13.63;;;6.20;;
69779;SDS011;57052;55.602;38.096;2023-04-25T02:08:13;12.48;;;6.20;;
69779;SDS011;57052;55.602;38.096;2023-04-25T02:10:39;10.70;;;6.15;;
69779;SDS011;57052;55.602;38.096;2023-04-25T02:13:04;13.23;;;6.90;;
69779;SDS011;57052;55.602;38.096;2023-04-25T02:15:30;11.07;;;6.32;;
69779;SDS011;57052;55.602;38.096;2023-04-25T02:18:16;13.88;;;6.35;;
69779;SDS011;57052;55.602;38.096;2023-04-25T02:20:42;10.18;;;5.68;;
69779;SDS011;57052;55.602;38.096;2023-04-25T02:23:08;11.45;;;6.35;;
69779;SDS011;57052;55.602;38.096;2023-04-25T02:25:34;11.70;;;5.55;;
69779;SDS011;57052;55.602;38.096;2023-04-25T02:28:00;8.73;;;5.65;;
69779;SDS011;57052;55.602;38.096;2023-04-25T02:30:25;9.82;;;5.65;;
69779;SDS011;57052;55.602;38.096;2023-04-25T02:32:51;8.88;;;5.47;;
69779;SDS011;57052;55.602;38.096;2023-04-25T02:35:17;9.60;;;5.07;;
69779;SDS011;57052;55.602;38.096;2023-04-25T02:37:43;10.25;;;5.47;;
69779;SDS011;57052;55.602;38.096;2023-04-25T02:40:08;8.45;;;4.95;;
69779;SDS011;57052;55.602;38.096;2023-04-25T02:42:35;10.02;;;4.97;;
69779;SDS011;57052;55.602;38.096;2023-04-25T02:45:01;12.05;;;5.10;;
69779;SDS011;57052;55.602;38.096;2023-04-25T02:47:30;12.30;;;4.70;;
69779;SDS011;57052;55.602;38.096;2023-04-25T02:49:56;7.53;;;4.75;;
69779;SDS011;57052;55.602;38.096;2023-04-25T02:52:22;8.63;;;4.80;;
69779;SDS011;57052;55.602;38.096;2023-04-25T02:54:47;9.13;;;5.20;;
69779;SDS011;57052;55.602;38.096;2023-04-25T02:57:13;9.85;;;4.50;;
69779;SDS011;57052;55.602;38.096;2023-04-25T02:59:38;9.25;;;4.60;;
69779;SDS011;57052;55.602;38.096;2023-04-25T03:02:04;10.23;;;4.43;;
69779;SDS011;57052;55.602;38.096;2023-04-25T03:04:30;10.38;;;4.93;;
69779;SDS011;57052;55.602;38.096;2023-04-25T03:06:56;10.48;;;5.10;;
69779;SDS011;57052;55.602;38.096;2023-04-25T03:09:22;10.40;;;4.88;;
69779;SDS011;57052;55.602;38.096;2023-04-25T03:11:47;8.35;;;4.63;;
69779;SDS011;57052;55.602;38.096;2023-04-25T03:14:13;7.40;;;4.70;;
69779;SDS011;57052;55.602;38.096;2023-04-25T03:16:39;10.38;;;5.15;;
69779;SDS011;57052;55.602;38.096;2023-04-25T03:19:05;8.32;;;4.95;;
69779;SDS011;57052;55.602;38.096;2023-04-25T03:21:31;10.25;;;4.97;;
69779;SDS011;57052;55.602;38.096;2023-04-25T03:23:58;11.70;;;5.13;;
69779;SDS011;57052;55.602;38.096;2023-04-25T03:26:25;11.70;;;5.10;;
69779;SDS011;57052;55.602;38.096;2023-04-25T03:28:51;11.73;;;5.10;;
69779;SDS011;57052;55.602;38.096;2023-04-25T03:31:16;12.88;;;5.32;;
69779;SDS011;57052;55.602;38.096;2023-04-25T03:33:42;13.27;;;5.65;;
69779;SDS011;57052;55.602;38.096;2023-04-25T03:36:08;9.55;;;5.45;;
69779;SDS011;57052;55.602;38.096;2023-04-25T03:38:33;10.10;;;5.15;;
69779;SDS011;57052;55.602;38.096;2023-04-25T03:41:00;11.57;;;5.32;;
69779;SDS011;57052;55.602;38.096;2023-04-25T03:43:26;12.23;;;5.47;;
69779;SDS011;57052;55.602;38.096;2023-04-25T03:45:52;9.93;;;5.70;;
69779;SDS011;57052;55.602;38.096;2023-04-25T03:48:18;14.30;;;5.72;;
69779;SDS011;57052;55.602;38.096;2023-04-25T03:50:47;14.65;;;5.38;;
69779;SDS011;57052;55.602;38.096;2023-04-25T03:53:12;10.05;;;5.68;;
69779;SDS011;57052;55.602;38.096;2023-04-25T03:55:38;10.10;;;5.40;;
69779;SDS011;57052;55.602;38.096;2023-04-25T03:58:04;12.30;;;5.43;;
69779;SDS011;57052;55.602;38.096;2023-04-25T04:00:30;9.77;;;5.93;;
69779;SDS011;57052;55.602;38.096;2023-04-25T04:02:55;12.18;;;5.63;;
69779;SDS011;57052;55.602;38.096;2023-04-25T04:05:21;12.07;;;5.72;;
69779;SDS011;57052;55.602;38.096;2023-04-25T04:07:47;11.75;;;5.13;;
69779;SDS011;57052;55.602;38.096;2023-04-25T04:10:13;9.65;;;5.70;;
69779;SDS011;57052;55.602;38.096;2023-04-25T04:12:38;10.73;;;6.10;;
69779;SDS011;57052;55.602;38.096;2023-04-25T04:15:04;12.93;;;5.72;;
69779;SDS011;57052;55.602;38.096;2023-04-25T04:17:33;11.38;;;5.00;;
69779;SDS011;57052;55.602;38.096;2023-04-25T04:19:59;9.32;;;5.50;;
69779;SDS011;57052;55.602;38.096;2023-04-25T04:22:25;10.38;;;5.50;;
69779;SDS011;57052;55.602;38.096;2023-04-25T04:24:51;8.68;;;5.32;;
69779;SDS011;57052;55.602;38.096;2023-04-25T04:27:17;9.63;;;5.32;;
69779;SDS011;57052;55.602;38.096;2023-04-25T04:29:45;9.10;;;5.32;;
69779;SDS011;57052;55.602;38.096;2023-04-25T04:32:11;8.27;;;5.13;;
69779;SDS011;57052;55.602;38.096;2023-04-25T04:34:37;12.40;;;5.75;;
69779;SDS011;57052;55.602;38.096;2023-04-25T04:37:05;11.55;;;5.65;;
69779;SDS011;57052;55.602;38.096;2023-04-25T04:39:32;11.57;;;5.90;;
69779;SDS011;57052;55.602;38.096;2023-04-25T04:41:58;10.90;;;5.95;;
69779;SDS011;57052;55.602;38.096;2023-04-25T04:44:26;10.07;;;5.75;;
69779;SDS011;57052;55.602;38.096;2023-04-25T04:46:52;9.40;;;5.63;;
69779;SDS011;57052;55.602;38.096;2023-04-25T04:49:17;13.20;;;5.85;;
69779;SDS011;57052;55.602;38.096;2023-04-25T04:51:43;13.48;;;5.80;;
69779;SDS011;57052;55.602;38.096;2023-04-25T04:54:12;10.25;;;5.15;;
69779;SDS011;57052;55.602;38.096;2023-04-25T04:56:38;11.73;;;5.40;;
69779;SDS011;57052;55.602;38.096;2023-04-25T04:59:03;13.63;;;5.75;;
69779;SDS011;57052;55.602;38.096;2023-04-25T05:01:29;10.40;;;5.57;;
69779;SDS011;57052;55.602;38.096;2023-04-25T05:03:55;10.25;;;5.53;;
69779;SDS011;57052;55.602;38.096;2023-04-25T05:06:26;9.25;;;5.38;;
69779;SDS011;57052;55.602;38.096;2023-04-25T05:08:52;11.60;;;5.28;;
69779;SDS011;57052;55.602;38.096;2023-04-25T05:11:18;8.77;;;5.30;;
69779;SDS011;57052;55.602;38.096;2023-04-25T05:13:44;9.82;;;5.20;;
69779;SDS011;57052;55.602;38.096;2023-04-25T05:16:11;10.27;;;5.55;;
69779;SDS011;57052;55.602;38.096;2023-04-25T05:18:38;10.05;;;4.95;;
69779;SDS011;57052;55.602;38.096;2023-04-25T05:21:04;12.55;;;4.90;;
69779;SDS011;57052;55.602;38.096;2023-04-25T05:23:31;9.95;;;4.95;;
69779;SDS011;57052;55.602;38.096;2023-04-25T05:25:57;8.20;;;4.90;;
69779;SDS011;57052;55.602;38.096;2023-04-25T05:28:24;10.65;;;4.90;;
69779;SDS011;57052;55.602;38.096;2023-04-25T05:30:50;9.95;;;4.68;;
69779;SDS011;57052;55.602;38.096;2023-04-25T05:33:16;10.02;;;4.60;;
69779;SDS011;57052;55.602;38.096;2023-04-25T05:35:41;9.30;;;4.65;;
69779;SDS011;57052;55.602;38.096;2023-04-25T05:38:07;9.05;;;4.50;;
69779;SDS011;57052;55.602;38.096;2023-04-25T05:40:33;8.45;;;4.55;;
69779;SDS011;57052;55.602;38.096;2023-04-25T05:42:59;11.90;;;4.70;;
69779;SDS011;57052;55.602;38.096;2023-04-25T05:45:24;9.70;;;4.45;;
69779;SDS011;57052;55.602;38.096;2023-04-25T05:47:50;8.93;;;4.85;;
69779;SDS011;57052;55.602;38.096;2023-04-25T05:50:16;10.65;;;5.63;;
69779;SDS011;57052;55.602;38.096;2023-04-25T05:52:42;7.28;;;4.60;;
69779;SDS011;57052;55.602;38.096;2023-04-25T05:55:07;9.60;;;5.10;;
69779;SDS011;57052;55.602;38.096;2023-04-25T05:57:34;9.90;;;4.43;;
69779;SDS011;57052;55.602;38.096;2023-04-25T06:00:00;8.77;;;4.50;;
69779;SDS011;57052;55.602;38.096;2023-04-25T06:02:27;8.80;;;4.32;;
69779;SDS011;57052;55.602;38.096;2023-04-25T06:04:52;8.93;;;4.00;;
69779;SDS011;57052;55.602;38.096;2023-04-25T06:07:18;9.50;;;4.32;;
69779;SDS011;57052;55.602;38.096;2023-04-25T06:09:45;8.38;;;3.75;;
69779;SDS011;57052;55.602;38.096;2023-04-25T06:12:11;9.68;;;4.15;;
69779;SDS011;57052;55.602;38.096;2023-04-25T06:14:36;6.57;;;3.83;;
69779;SDS011;57052;55.602;38.096;2023-04-25T06:17:03;16.35;;;4.30;;
69779;SDS011;57052;55.602;38.096;2023-04-25T06:19:33;8.10;;;3.92;;
69779;SDS011;57052;55.602;38.096;2023-04-25T06:22:00;6.50;;;3.80;;
69779;SDS011;57052;55.602;38.096;2023-04-25T06:24:26;9.07;;;3.65;;
69779;SDS011;57052;55.602;38.096;2023-04-25T06:26:52;7.30;;;3.75;;
69779;SDS011;57052;55.602;38.096;2023-04-25T06:29:18;10.80;;;3.70;;
69779;SDS011;57052;55.602;38.096;2023-04-25T06:31:44;7.53;;;3.20;;
69779;SDS011;57052;55.602;38.096;2023-04-25T06:34:09;7.55;;;3.20;;
69779;SDS011;57052;55.602;38.096;2023-04-25T06:36:35;8.63;;;3.15;;
69779;SDS011;57052;55.602;38.096;2023-04-25T06:39:01;8.25;;;3.38;;
69779;SDS011;57052;55.602;38.096;2023-04-25T06:41:27;10.40;;;3.00;;
69779;SDS011;57052;55.602;38.096;2023-04-25T06:43:53;7.28;;;3.20;;
69779;SDS011;57052;55.602;38.096;2023-04-25T06:46:18;6.15;;;3.00;;
69779;SDS011;57052;55.602;38.096;2023-04-25T06:48:44;6.47;;;3.17;;
69779;SDS011;57052;55.602;38.096;2023-04-25T06:51:10;8.18;;;3.63;;
69779;SDS011;57052;55.602;38.096;2023-04-25T06:53:35;7.78;;;3.47;;
69779;SDS011;57052;55.602;38.096;2023-04-25T06:56:01;7.18;;;3.75;;
69779;SDS011;57052;55.602;38.096;2023-04-25T06:58:28;9.27;;;3.42;;
69779;SDS011;57052;55.602;38.096;2023-04-25T07:00:54;7.72;;;3.35;;
69779;SDS011;57052;55.602;38.096;2023-04-25T07:03:20;6.80;;;2.97;;
69779;SDS011;57052;55.602;38.096;2023-04-25T07:05:45;6.15;;;3.00;;
69779;SDS011;57052;55.602;38.096;2023-04-25T07:08:11;5.78;;;2.75;;
69779;SDS011;57052;55.602;38.096;2023-04-25T07:10:37;6.05;;;2.83;;
69779;SDS011;57052;55.602;38.096;2023-04-25T07:13:03;8.85;;;3.58;;
69779;SDS011;57052;55.602;38.096;2023-04-25T07:15:28;6.70;;;3.28;;
69779;SDS011;57052;55.602;38.096;2023-04-25T07:17:54;9.77;;;3.20;;
69779;SDS011;57052;55.602;38.096;2023-04-25T07:20:20;7.97;;;2.70;;
69779;SDS011;57052;55.602;38.096;2023-04-25T07:22:46;6.25;;;2.50;;
69779;SDS011;57052;55.602;38.096;2023-04-25T07:25:11;5.60;;;2.70;;
69779;SDS011;57052;55.602;38.096;2023-04-25T07:27:37;13.20;;;3.28;;
69779;SDS011;57052;55.602;38.096;2023-04-25T07:30:03;11.43;;;3.25;;
69779;SDS011;57052;55.602;38.096;2023-04-25T07:32:32;8.52;;;4.55;;
69779;SDS011;57052;55.602;38.096;2023-04-25T07:34:57;9.63;;;4.18;;
69779;SDS011;57052;55.602;38.096;2023-04-25T07:37:23;8.70;;;3.97;;
69779;SDS011;57052;55.602;38.096;2023-04-25T07:39:49;8.73;;;4.28;;
69779;SDS011;57052;55.602;38.096;2023-04-25T07:42:14;9.65;;;5.10;;
69779;SDS011;57052;55.602;38.096;2023-04-25T07:44:40;9.23;;;4.40;;
69779;SDS011;57052;55.602;38.096;2023-04-25T07:47:07;8.60;;;3.75;;
69779;SDS011;57052;55.602;38.096;2023-04-25T07:49:34;7.13;;;3.63;;
69779;SDS011;57052;55.602;38.096;2023-04-25T07:52:00;10.95;;;4.28;;
69779;SDS011;57052;55.602;38.096;2023-04-25T07:54:27;8.50;;;3.97;;
69779;SDS011;57052;55.602;38.096;2023-04-25T07:56:52;11.23;;;4.30;;
69779;SDS011;57052;55.602;38.096;2023-04-25T07:59:18;9.57;;;3.83;;
69779;SDS011;57052;55.602;38.096;2023-04-25T08:01:44;9.20;;;4.60;;
69779;SDS011;57052;55.602;38.096;2023-04-25T08:04:10;7.93;;;3.10;;
69779;SDS011;57052;55.602;38.096;2023-04-25T08:06:41;8.25;;;3.70;;
69779;SDS011;57052;55.602;38.096;2023-04-25T08:09:12;11.65;;;4.20;;
69779;SDS011;57052;55.602;38.096;2023-04-25T08:11:41;15.95;;;5.55;;
69779;SDS011;57052;55.602;38.096;2023-04-25T08:14:07;11.50;;;5.18;;
69779;SDS011;57052;55.602;38.096;2023-04-25T08:16:32;13.90;;;4.50;;
69779;SDS011;57052;55.602;38.096;2023-04-25T08:18:59;7.20;;;4.00;;
69779;SDS011;57052;55.602;38.096;2023-04-25T08:21:25;9.15;;;4.65;;
69779;SDS011;57052;55.602;38.096;2023-04-25T08:23:52;10.55;;;4.35;;
69779;SDS011;57052;55.602;38.096;2023-04-25T08:26:18;7.78;;;4.28;;
69779;SDS011;57052;55.602;38.096;2023-04-25T08:28:44;8.73;;;3.83;;
69779;SDS011;57052;55.602;38.096;2023-04-25T08:31:09;10.32;;;4.70;;
69779;SDS011;57052;55.602;38.096;2023-04-25T08:33:35;8.18;;;4.05;;
69779;SDS011;57052;55.602;38.096;2023-04-25T08:36:01;9.98;;;4.35;;
69779;SDS011;57052;55.602;38.096;2023-04-25T08:38:27;13.85;;;4.68;;
69779;SDS011;57052;55.602;38.096;2023-04-25T08:40:52;9.13;;;4.07;;
69779;SDS011;57052;55.602;38.096;2023-04-25T08:43:20;9.73;;;3.97;;
69779;SDS011;57052;55.602;38.096;2023-04-25T08:45:46;5.88;;;3.15;;
69779;SDS011;57052;55.602;38.096;2023-04-25T08:48:12;8.55;;;3.17;;
69779;SDS011;57052;55.602;38.096;2023-04-25T08:50:40;7.40;;;3.35;;
69779;SDS011;57052;55.602;38.096;2023-04-25T08:53:14;7.03;;;3.05;;
69779;SDS011;57052;55.602;38.096;2023-04-25T08:55:43;7.85;;;2.78;;
69779;SDS011;57052;55.602;38.096;2023-04-25T08:58:11;7.97;;;3.30;;
69779;SDS011;57052;55.602;38.096;2023-04-25T09:00:38;5.13;;;2.78;;
69779;SDS011;57052;55.602;38.096;2023-04-25T09:03:04;7.93;;;3.10;;
69779;SDS011;57052;55.602;38.096;2023-04-25T09:05:30;7.43;;;3.00;;
69779;SDS011;57052;55.602;38.096;2023-04-25T09:07:57;4.75;;;2.85;;
69779;SDS011;57052;55.602;38.096;2023-04-25T09:10:23;7.93;;;2.70;;
69779;SDS011;57052;55.602;38.096;2023-04-25T09:15:54;6.72;;;2.90;;
69779;SDS011;57052;55.602;38.096;2023-04-25T09:20:53;6.25;;;2.10;;
69779;SDS011;57052;55.602;38.096;2023-04-25T09:23:21;8.35;;;2.00;;
69779;SDS011;57052;55.602;38.096;2023-04-25T09:25:48;3.33;;;2.00;;
69779;SDS011;57052;55.602;38.096;2023-04-25T09:28:15;6.57;;;2.40;;
69779;SDS011;57052;55.602;38.096;2023-04-25T09:30:41;5.93;;;2.20;;
69779;SDS011;57052;55.602;38.096;2023-04-25T09:33:07;6.18;;;2.20;;
69779;SDS011;57052;55.602;38.096;2023-04-25T09:35:35;6.03;;;2.72;;
69779;SDS011;57052;55.602;38.096;2023-04-25T09:38:13;5.60;;;2.58;;
69779;SDS011;57052;55.602;38.096;2023-04-25T09:40:40;5.95;;;2.45;;
69779;SDS011;57052;55.602;38.096;2023-04-25T09:45:42;4.20;;;2.30;;
69779;SDS011;57052;55.602;38.096;2023-04-25T09:48:19;5.47;;;2.17;;
69779;SDS011;57052;55.602;38.096;2023-04-25T09:51:07;9.18;;;2.33;;
69779;SDS011;57052;55.602;38.096;2023-04-25T09:53:43;5.75;;;2.35;;
69779;SDS011;57052;55.602;38.096;2023-04-25T09:56:11;3.92;;;2.15;;
69779;SDS011;57052;55.602;38.096;2023-04-25T09:58:38;3.55;;;2.03;;
69779;SDS011;57052;55.602;38.096;2023-04-25T10:01:09;3.88;;;1.83;;
69779;SDS011;57052;55.602;38.096;2023-04-25T10:03:36;4.75;;;1.88;;
69779;SDS011;57052;55.602;38.096;2023-04-25T10:06:14;10.32;;;2.10;;
69779;SDS011;57052;55.602;38.096;2023-04-25T10:08:44;6.50;;;2.40;;
69779;SDS011;57052;55.602;38.096;2023-04-25T10:11:14;9.15;;;2.60;;
69779;SDS011;57052;55.602;38.096;2023-04-25T10:13:41;4.68;;;2.20;;
69779;SDS011;57052;55.602;38.096;2023-04-25T10:16:08;8.57;;;2.28;;
69779;SDS011;57052;55.602;38.096;2023-04-25T10:18:34;4.85;;;1.90;;
69779;SDS011;57052;55.602;38.096;2023-04-25T10:21:00;4.03;;;2.15;;
69779;SDS011;57052;55.602;38.096;2023-04-25T10:23:27;5.97;;;2.05;;
69779;SDS011;57052;55.602;38.096;2023-04-25T10:25:55;4.03;;;2.03;;
69779;SDS011;57052;55.602;38.096;2023-04-25T10:28:21;4.65;;;2.30;;
69779;SDS011;57052;55.602;38.096;2023-04-25T10:31:03;4.00;;;1.95;;
69779;SDS011;57052;55.602;38.096;2023-04-25T10:33:37;8.88;;;2.47;;
69779;SDS011;57052;55.602;38.096;2023-04-25T10:36:14;5.10;;;2.05;;
69779;SDS011;57052;55.602;38.096;2023-04-25T10:38:43;6.60;;;2.10;;
69779;SDS011;57052;55.602;38.096;2023-04-25T10:41:11;5.20;;;2.30;;
69779;SDS011;57052;55.602;38.096;2023-04-25T10:43:39;5.15;;;2.78;;
69779;SDS011;57052;55.602;38.096;2023-04-25T10:46:19;4.55;;;2.50;;
69779;SDS011;57052;55.602;38.096;2023-04-25T10:48:46;4.70;;;2.50;;
69779;SDS011;57052;55.602;38.096;2023-04-25T11:01:42;3.92;;;2.00;;
69779;SDS011;57052;55.602;38.096;2023-04-25T11:09:34;12.57;;;2.42;;
69779;SDS011;57052;55.602;38.096;2023-04-25T11:12:00;8.23;;;2.15;;
69779;SDS011;57052;55.602;38.096;2023-04-25T11:14:26;6.32;;;2.40;;
69779;SDS011;57052;55.602;38.096;2023-04-25T11:16:53;6.38;;;2.58;;
69779;SDS011;57052;55.602;38.096;2023-04-25T11:19:20;5.35;;;2.28;;
69779;SDS011;57052;55.602;38.096;2023-04-25T11:21:47;6.15;;;2.28;;
69779;SDS011;57052;55.602;38.096;2023-04-25T11:24:12;12.48;;;2.72;;
69779;SDS011;57052;55.602;38.096;2023-04-25T11:26:38;4.18;;;2.25;;
69779;SDS011;57052;55.602;38.096;2023-04-25T11:29:07;4.45;;;2.42;;
69779;SDS011;57052;55.602;38.096;2023-04-25T11:31:32;5.68;;;2.50;;
69779;SDS011;57052;55.602;38.096;2023-04-25T11:33:58;3.92;;;2.20;;
69779;SDS011;57052;55.602;38.096;2023-04-25T11:36:24;4.40;;;2.50;;
69779;SDS011;57052;55.602;38.096;2023-04-25T11:38:53;7.03;;;2.33;;
69779;SDS011;57052;55.602;38.096;2023-04-25T11:41:19;5.85;;;2.28;;
69779;SDS011;57052;55.602;38.096;2023-04-25T11:43:45;5.40;;;2.33;;
69779;SDS011;57052;55.602;38.096;2023-04-25T11:46:11;3.90;;;2.28;;
69779;SDS011;57052;55.602;38.096;2023-04-25T11:48:38;4.93;;;2.40;;
69779;SDS011;57052;55.602;38.096;2023-04-25T11:51:04;7.95;;;2.50;;
69779;SDS011;57052;55.602;38.096;2023-04-25T11:53:30;3.95;;;2.47;;
69779;SDS011;57052;55.602;38.096;2023-04-25T11:55:56;4.57;;;2.20;;
69779;SDS011;57052;55.602;38.096;2023-04-25T11:58:21;6.72;;;2.30;;
69779;SDS011;57052;55.602;38.096;2023-04-25T12:00:47;5.03;;;2.50;;
69779;SDS011;57052;55.602;38.096;2023-04-25T12:03:13;5.38;;;2.20;;
69779;SDS011;57052;55.602;38.096;2023-04-25T12:05:38;4.25;;;2.60;;
69779;SDS011;57052;55.602;38.096;2023-04-25T12:08:14;4.97;;;2.40;;
69779;SDS011;57052;55.602;38.096;2023-04-25T12:10:42;4.57;;;2.60;;
69779;SDS011;57052;55.602;38.096;2023-04-25T12:13:23;4.93;;;2.30;;
69779;SDS011;57052;55.602;38.096;2023-04-25T12:15:50;6.75;;;2.70;;
69779;SDS011;57052;55.602;38.096;2023-04-25T12:18:20;7.03;;;2.58;;
69779;SDS011;57052;55.602;38.096;2023-04-25T12:20:48;4.47;;;2.47;;
69779;SDS011;57052;55.602;38.096;2023-04-25T12:23:13;5.20;;;2.40;;
69779;SDS011;57052;55.602;38.096;2023-04-25T12:25:43;8.27;;;2.92;;
69779;SDS011;57052;55.602;38.096;2023-04-25T12:28:11;6.13;;;2.78;;
69779;SDS011;57052;55.602;38.096;2023-04-25T12:30:58;5.53;;;2.50;;
69779;SDS011;57052;55.602;38.096;2023-04-25T12:33:28;7.65;;;3.00;;
69779;SDS011;57052;55.602;38.096;2023-04-25T12:35:55;5.50;;;2.70;;
69779;SDS011;57052;55.602;38.096;2023-04-25T12:38:30;8.43;;;4.65;;
69779;SDS011;57052;55.602;38.096;2023-04-25T12:40:57;6.05;;;3.40;;
69779;SDS011;57052;55.602;38.096;2023-04-25T12:43:23;4.30;;;3.08;;
69779;SDS011;57052;55.602;38.096;2023-04-25T12:45:53;8.18;;;3.15;;
69779;SDS011;57052;55.602;38.096;2023-04-25T12:48:19;6.00;;;3.22;;
69779;SDS011;57052;55.602;38.096;2023-04-25T12:50:46;5.57;;;3.40;;
69779;SDS011;57052;55.602;38.096;2023-04-25T12:53:17;9.77;;;3.60;;
69779;SDS011;57052;55.602;38.096;2023-04-25T12:55:44;6.43;;;3.10;;
69779;SDS011;57052;55.602;38.096;2023-04-25T12:58:13;7.30;;;3.60;;
69779;SDS011;57052;55.602;38.096;2023-04-25T13:00:39;9.85;;;3.55;;
69779;SDS011;57052;55.602;38.096;2023-04-25T13:03:05;6.65;;;3.13;;
69779;SDS011;57052;55.602;38.096;2023-04-25T13:05:31;9.13;;;3.50;;
69779;SDS011;57052;55.602;38.096;2023-04-25T13:07:56;6.70;;;3.60;;
69779;SDS011;57052;55.602;38.096;2023-04-25T13:10:22;6.55;;;3.83;;
69779;SDS011;57052;55.602;38.096;2023-04-25T13:12:48;7.28;;;3.42;;
69779;SDS011;57052;55.602;38.096;2023-04-25T13:15:13;8.40;;;3.85;;
69779;SDS011;57052;55.602;38.096;2023-04-25T13:17:41;10.00;;;3.75;;
69779;SDS011;57052;55.602;38.096;2023-04-25T13:20:07;5.97;;;3.10;;
69779;SDS011;57052;55.602;38.096;2023-04-25T13:22:34;5.45;;;3.58;;
69779;SDS011;57052;55.602;38.096;2023-04-25T13:25:03;6.93;;;3.45;;
69779;SDS011;57052;55.602;38.096;2023-04-25T13:27:30;9.73;;;3.55;;
69779;SDS011;57052;55.602;38.096;2023-04-25T13:29:58;6.40;;;3.28;;
69779;SDS011;57052;55.602;38.096;2023-04-25T13:32:24;5.82;;;3.35;;
69779;SDS011;57052;55.602;38.096;2023-04-25T13:34:50;6.05;;;3.70;;
69779;SDS011;57052;55.602;38.096;2023-04-25T13:37:16;7.40;;;3.30;;
69779;SDS011;57052;55.602;38.096;2023-04-25T13:39:42;9.63;;;3.10;;
69779;SDS011;57052;55.602;38.096;2023-04-25T13:42:08;7.63;;;2.90;;
69779;SDS011;57052;55.602;38.096;2023-04-25T13:44:33;6.93;;;3.03;;
69779;SDS011;57052;55.602;38.096;2023-04-25T13:47:00;4.65;;;2.95;;
69779;SDS011;57052;55.602;38.096;2023-04-25T13:49:26;5.45;;;3.00;;
69779;SDS011;57052;55.602;38.096;2023-04-25T13:51:52;8.75;;;2.80;;
69779;SDS011;57052;55.602;38.096;2023-04-25T13:54:17;6.00;;;2.85;;
69779;SDS011;57052;55.602;38.096;2023-04-25T13:56:43;5.43;;;2.65;;
69779;SDS011;57052;55.602;38.096;2023-04-25T13:59:09;6.10;;;2.63;;
69779;SDS011;57052;55.602;38.096;2023-04-25T14:01:35;6.80;;;2.80;;
69779;SDS011;57052;55.602;38.096;2023-04-25T14:04:01;6.97;;;3.03;;
69779;SDS011;57052;55.602;38.096;2023-04-25T14:06:28;4.95;;;2.67;;
69779;SDS011;57052;55.602;38.096;2023-04-25T14:08:55;5.25;;;2.97;;
69779;SDS011;57052;55.602;38.096;2023-04-25T14:11:21;7.70;;;3.10;;
69779;SDS011;57052;55.602;38.096;2023-04-25T14:13:47;6.93;;;3.30;;
69779;SDS011;57052;55.602;38.096;2023-04-25T14:16:15;9.07;;;3.28;;
69779;SDS011;57052;55.602;38.096;2023-04-25T14:18:41;9.15;;;3.20;;
69779;SDS011;57052;55.602;38.096;2023-04-25T14:21:06;5.32;;;3.00;;
69779;SDS011;57052;55.602;38.096;2023-04-25T14:23:33;8.95;;;3.10;;
69779;SDS011;57052;55.602;38.096;2023-04-25T14:25:58;5.82;;;2.70;;
69779;SDS011;57052;55.602;38.096;2023-04-25T14:28:24;5.85;;;2.60;;
69779;SDS011;57052;55.602;38.096;2023-04-25T14:30:50;14.73;;;3.60;;
69779;SDS011;57052;55.602;38.096;2023-04-25T14:33:15;4.55;;;2.80;;
69779;SDS011;57052;55.602;38.096;2023-04-25T14:35:41;5.22;;;2.60;;
69779;SDS011;57052;55.602;38.096;2023-04-25T14:38:07;5.90;;;3.20;;
69779;SDS011;57052;55.602;38.096;2023-04-25T14:40:33;9.77;;;3.78;;
69779;SDS011;57052;55.602;38.096;2023-04-25T14:42:58;5.18;;;3.17;;
69779;SDS011;57052;55.602;38.096;2023-04-25T14:45:24;6.53;;;3.25;;
69779;SDS011;57052;55.602;38.096;2023-04-25T14:47:50;7.75;;;3.08;;
69779;SDS011;57052;55.602;38.096;2023-04-25T14:50:16;4.10;;;2.80;;
69779;SDS011;57052;55.602;38.096;2023-04-25T14:52:42;5.72;;;3.80;;